createdAt,value
2023-05-07T00:00:33.012Z,55.20
2023-05-07T00:03:02.817Z,51.08
2023-05-07T00:05:32.561Z,46.70
2023-05-07T00:08:01.451Z,40.33
2023-05-07T00:10:32.691Z,44.00
2023-05-07T00:13:04.530Z,41.90
2023-05-07T00:15:34.621Z,42.45
2023-05-07T00:18:04.435Z,39.00
2023-05-07T00:20:35.596Z,39.65
2023-05-07T00:23:04.826Z,38.58
2023-05-07T00:25:36.670Z,32.17
2023-05-07T00:28:06.176Z,31.50
2023-05-07T00:30:34.968Z,33.33
2023-05-07T00:33:04.024Z,37.53
2023-05-07T00:35:32.845Z,31.20
2023-05-07T00:38:02.056Z,29.23
2023-05-07T00:40:30.958Z,32.47
2023-05-07T00:43:03.821Z,33.13
2023-05-07T00:45:33.625Z,37.63
2023-05-07T00:48:05.065Z,35.15
2023-05-07T00:50:35.152Z,39.42
2023-05-07T00:53:05.620Z,30.67
2023-05-07T00:55:36.895Z,35.03
2023-05-07T00:58:10.773Z,29.30
2023-05-07T01:00:40.762Z,32.00
2023-05-07T01:03:10.095Z,37.03
2023-05-07T01:05:41.376Z,31.90
2023-05-07T01:08:12.166Z,34.60
2023-05-07T01:10:48.104Z,31.67
2023-05-07T01:13:19.287Z,39.60
2023-05-07T01:15:48.996Z,32.53
2023-05-07T01:18:18.306Z,35.53
2023-05-07T01:20:47.681Z,33.20
2023-05-07T01:23:19.655Z,32.47
2023-05-07T01:25:55.750Z,32.40
2023-05-07T01:28:25.017Z,33.63
2023-05-07T01:31:02.507Z,29.95
2023-05-07T01:33:38.802Z,32.30
2023-05-07T01:36:10.327Z,33.22
2023-05-07T01:38:43.601Z,29.45
2023-05-07T01:41:12.252Z,29.40
2023-05-07T01:43:42.416Z,29.50
2023-05-07T01:46:13.467Z,29.33
2023-05-07T01:48:47.224Z,28.67
2023-05-07T01:51:17.740Z,28.98
2023-05-07T01:53:52.069Z,28.80
2023-05-07T01:56:22.540Z,30.67
2023-05-07T01:58:53.054Z,29.58
2023-05-07T02:01:27.025Z,22.45
2023-05-07T02:03:57.148Z,22.77
2023-05-07T02:06:27.870Z,25.35
2023-05-07T02:09:00.657Z,24.60
2023-05-07T02:11:29.443Z,22.30
2023-05-07T02:14:00.186Z,26.20
2023-05-07T02:16:31.680Z,26.50
2023-05-07T02:19:02.607Z,26.33
2023-05-07T02:21:33.649Z,22.27
2023-05-07T02:24:04.634Z,23.70
2023-05-07T02:26:35.391Z,22.90
2023-05-07T02:29:05.658Z,26.50
2023-05-07T02:31:35.386Z,23.25
2023-05-07T02:34:06.893Z,25.50
2023-05-07T02:36:49.301Z,23.63
2023-05-07T02:39:22.915Z,23.25
2023-05-07T02:41:53.703Z,22.60
2023-05-07T02:44:25.701Z,19.88
2023-05-07T02:46:57.864Z,22.25
2023-05-07T02:49:28.823Z,23.90
2023-05-07T02:51:57.682Z,22.70
2023-05-07T02:54:27.777Z,20.40
2023-05-07T02:56:57.792Z,24.88
2023-05-07T02:59:29.023Z,24.27
2023-05-07T03:01:57.866Z,23.77
2023-05-07T03:04:28.379Z,19.52
2023-05-07T03:06:57.782Z,21.98
2023-05-07T03:09:28.037Z,21.25
2023-05-07T03:11:57.347Z,26.25
2023-05-07T03:14:27.082Z,24.02
2023-05-07T03:16:58.201Z,18.23
2023-05-07T03:19:27.706Z,23.20
2023-05-07T03:21:59.660Z,21.80
2023-05-07T03:24:30.962Z,20.50
2023-05-07T03:27:01.619Z,23.50
2023-05-07T03:29:32.189Z,20.42
2023-05-07T03:32:04.462Z,21.30
2023-05-07T03:34:34.582Z,20.42
2023-05-07T03:37:03.086Z,21.55
2023-05-07T03:39:38.239Z,25.35
2023-05-07T03:42:07.560Z,22.38
2023-05-07T03:44:38.681Z,20.10
2023-05-07T03:47:07.665Z,24.70
2023-05-07T03:49:42.620Z,23.45
2023-05-07T03:52:12.229Z,25.00
2023-05-07T03:54:51.363Z,23.75
2023-05-07T03:57:22.641Z,21.08
2023-05-07T03:59:53.213Z,23.73
2023-05-07T04:02:28.186Z,23.42
2023-05-07T04:05:00.272Z,23.83
2023-05-07T04:07:29.923Z,24.63
2023-05-07T04:10:00.423Z,30.80
2023-05-07T04:12:31.502Z,24.08
2023-05-07T04:15:02.316Z,26.92
2023-05-07T04:17:36.159Z,28.42
2023-05-07T04:20:08.556Z,30.02
2023-05-07T04:22:39.288Z,30.88
2023-05-07T04:25:13.912Z,31.13
2023-05-07T04:27:46.432Z,30.80
2023-05-07T04:30:20.235Z,35.08
2023-05-07T04:32:51.611Z,32.45
2023-05-07T04:35:25.118Z,35.78
2023-05-07T04:37:56.430Z,35.58
2023-05-07T04:40:32.032Z,36.90
2023-05-07T04:43:05.189Z,32.88
2023-05-07T04:45:36.968Z,32.53
2023-05-07T04:48:08.721Z,33.55
2023-05-07T04:50:38.320Z,28.20
2023-05-07T04:53:07.879Z,30.05
2023-05-07T04:55:42.234Z,29.17
2023-05-07T04:58:13.574Z,30.27
2023-05-07T05:00:43.693Z,29.05
2023-05-07T05:03:14.738Z,30.15
2023-05-07T05:05:47.416Z,31.50
2023-05-07T05:08:21.150Z,31.95
2023-05-07T05:10:55.103Z,29.25
2023-05-07T05:13:28.516Z,34.40
2023-05-07T05:16:03.895Z,32.00
2023-05-07T05:18:35.301Z,30.30
2023-05-07T05:21:08.390Z,29.38
2023-05-07T05:23:41.087Z,31.90
2023-05-07T05:26:19.318Z,34.60
2023-05-07T05:28:49.780Z,35.00
2023-05-07T05:31:25.649Z,31.08
2023-05-07T05:33:55.764Z,32.20
2023-05-07T05:36:41.073Z,34.30
2023-05-07T05:39:16.218Z,36.67
2023-05-07T05:41:54.295Z,36.45
2023-05-07T05:44:24.227Z,41.13
2023-05-07T05:46:58.868Z,41.05
2023-05-07T05:49:31.944Z,34.97
2023-05-07T05:52:14.275Z,35.28
2023-05-07T05:54:51.809Z,37.50
2023-05-07T05:57:28.615Z,40.20
2023-05-07T06:00:02.917Z,37.10
2023-05-07T06:02:32.662Z,38.03
2023-05-07T06:05:12.248Z,33.08
2023-05-07T06:07:42.194Z,34.90
2023-05-07T06:10:12.313Z,33.83
2023-05-07T06:12:46.914Z,30.80
2023-05-07T06:15:19.417Z,33.15
2023-05-07T06:17:58.400Z,32.53
2023-05-07T06:20:30.532Z,34.67
2023-05-07T06:23:04.179Z,33.63
2023-05-07T06:25:36.283Z,31.52
2023-05-07T06:28:14.253Z,33.70
2023-05-07T06:30:44.906Z,31.15
2023-05-07T06:33:18.866Z,29.90
2023-05-07T06:35:48.384Z,31.88
2023-05-07T06:38:18.977Z,28.30
2023-05-07T06:40:51.790Z,29.98
2023-05-07T06:43:23.160Z,29.02
2023-05-07T06:45:57.804Z,30.60
2023-05-07T06:48:27.027Z,31.30
2023-05-07T06:50:59.850Z,32.97
2023-05-07T06:53:29.703Z,32.70
2023-05-07T06:56:01.274Z,34.85
2023-05-07T06:58:35.692Z,36.45
2023-05-07T07:01:05.781Z,33.23
2023-05-07T07:03:36.260Z,35.75
2023-05-07T07:06:06.007Z,36.28
2023-05-07T07:08:39.191Z,30.05
2023-05-07T07:11:14.872Z,32.13
2023-05-07T07:13:47.688Z,29.67
2023-05-07T07:16:22.963Z,31.25
2023-05-07T07:21:25.864Z,31.50
2023-05-07T07:23:56.509Z,26.35
2023-05-07T07:26:27.453Z,27.58
2023-05-07T07:28:59.886Z,25.70
2023-05-07T07:31:32.927Z,25.90
2023-05-07T07:34:03.897Z,27.95
2023-05-07T07:36:42.810Z,26.08
2023-05-07T07:39:18.589Z,23.67
2023-05-07T07:41:50.384Z,25.60
2023-05-07T07:44:25.994Z,23.15
2023-05-07T07:46:57.346Z,26.48
2023-05-07T07:49:26.962Z,26.27
2023-05-07T07:52:00.557Z,23.13
2023-05-07T07:54:31.482Z,26.50
2023-05-07T07:57:02.733Z,22.95
2023-05-07T07:59:35.332Z,20.85
2023-05-07T08:02:05.351Z,21.85
2023-05-07T08:04:36.583Z,22.65
2023-05-07T08:07:06.417Z,24.88
2023-05-07T08:09:41.799Z,23.17
2023-05-07T08:12:15.025Z,23.83
2023-05-07T08:14:47.790Z,20.95
2023-05-07T08:17:18.967Z,19.73
2023-05-07T08:19:50.909Z,25.88
2023-05-07T08:22:27.045Z,21.65
2023-05-07T08:24:57.839Z,20.02
2023-05-07T08:27:27.808Z,19.67
2023-05-07T08:30:03.545Z,22.63
2023-05-07T08:32:36.469Z,18.63
2023-05-07T08:37:40.862Z,18.48
2023-05-07T08:40:14.508Z,17.25
2023-05-07T08:42:47.139Z,24.77
2023-05-07T08:45:24.363Z,20.80
2023-05-07T08:48:14.328Z,21.33
2023-05-07T08:50:44.034Z,20.23
2023-05-07T08:53:16.653Z,22.00
2023-05-07T08:55:46.243Z,21.98
2023-05-07T08:58:18.446Z,21.25
2023-05-07T09:00:55.542Z,29.33
2023-05-07T09:03:24.406Z,23.27
2023-05-07T09:05:54.170Z,19.95
2023-05-07T09:08:28.787Z,20.02
2023-05-07T09:11:02.134Z,21.02
2023-05-07T09:13:31.473Z,17.55
2023-05-07T09:16:15.453Z,18.88
2023-05-07T09:18:44.820Z,17.92
2023-05-07T09:21:16.996Z,21.70
2023-05-07T09:23:49.257Z,18.70
2023-05-07T09:26:20.519Z,20.20
2023-05-07T09:28:49.030Z,20.73
2023-05-07T09:31:22.854Z,18.20
2023-05-07T09:33:52.202Z,19.35
2023-05-07T09:36:21.546Z,20.25
2023-05-07T09:38:53.208Z,17.70
2023-05-07T09:41:26.284Z,19.05
2023-05-07T09:43:58.132Z,17.77
2023-05-07T09:46:35.061Z,16.92
2023-05-07T09:51:48.020Z,17.27
2023-05-07T09:54:16.852Z,17.77
2023-05-07T09:56:48.118Z,14.85
2023-05-07T09:59:19.757Z,17.15
2023-05-07T10:02:01.563Z,16.92
2023-05-07T10:04:34.826Z,15.27
2023-05-07T10:07:07.269Z,15.20
2023-05-07T10:09:39.506Z,16.15
2023-05-07T10:12:10.331Z,16.75
2023-05-07T10:14:41.228Z,20.30
2023-05-07T10:17:14.416Z,15.35
2023-05-07T10:19:46.483Z,14.63
2023-05-07T10:22:17.910Z,11.05
2023-05-07T10:24:51.576Z,15.15
2023-05-07T10:27:21.558Z,14.15
2023-05-07T10:30:02.234Z,11.65
2023-05-07T10:32:45.930Z,13.65
2023-05-07T10:35:22.699Z,10.98
2023-05-07T10:37:54.764Z,11.43
2023-05-07T10:40:29.220Z,15.15
2023-05-07T10:43:01.716Z,13.23
2023-05-07T10:45:32.066Z,13.15
2023-05-07T10:48:28.897Z,12.05
2023-05-07T10:51:24.796Z,10.65
2023-05-07T10:54:21.567Z,7.95
2023-05-07T10:56:52.074Z,8.65
2023-05-07T10:59:46.804Z,8.60
2023-05-07T11:02:16.858Z,8.85
2023-05-07T11:04:48.361Z,7.85
2023-05-07T11:07:32.073Z,12.38
2023-05-07T11:10:05.541Z,12.38
2023-05-07T11:12:58.574Z,9.50
2023-05-07T11:15:44.451Z,7.40
2023-05-07T11:18:17.580Z,12.27
2023-05-07T11:21:01.237Z,11.38
2023-05-07T11:24:03.167Z,11.75
2023-05-07T11:26:34.124Z,8.65
2023-05-07T11:29:03.423Z,6.97
2023-05-07T11:31:34.354Z,8.43
2023-05-07T11:34:11.885Z,7.07
2023-05-07T11:36:49.505Z,6.68
2023-05-07T11:39:30.197Z,9.25
2023-05-07T11:41:59.297Z,9.48
2023-05-07T11:44:43.845Z,8.20
2023-05-07T11:47:14.980Z,10.20
2023-05-07T11:49:45.662Z,7.53
2023-05-07T11:52:15.999Z,10.32
2023-05-07T11:54:52.078Z,8.32
2023-05-07T11:57:22.958Z,7.88
2023-05-07T11:59:59.503Z,11.65
2023-05-07T12:02:30.574Z,11.77
2023-05-07T12:05:03.640Z,9.95
2023-05-07T12:07:37.718Z,10.40
2023-05-07T12:10:12.802Z,6.18
2023-05-07T12:12:43.154Z,12.95
2023-05-07T12:15:14.761Z,9.40
2023-05-07T12:17:46.023Z,7.68
2023-05-07T12:20:29.787Z,10.57
2023-05-07T12:23:01.645Z,7.93
2023-05-07T12:25:34.796Z,8.57
2023-05-07T12:28:09.325Z,8.25
2023-05-07T12:30:40.894Z,10.48
2023-05-07T12:33:10.843Z,7.03
2023-05-07T12:35:42.169Z,9.02
2023-05-07T12:38:20.074Z,9.77
2023-05-07T12:40:52.359Z,9.32
2023-05-07T12:43:21.494Z,11.32
2023-05-07T12:45:56.857Z,11.60
2023-05-07T12:48:31.325Z,11.05
2023-05-07T12:51:02.600Z,10.48
2023-05-07T12:53:34.328Z,10.77
2023-05-07T12:56:07.985Z,10.77
2023-05-07T12:58:41.615Z,11.15
2023-05-07T13:01:16.833Z,10.25
2023-05-07T13:06:23.036Z,13.05
2023-05-07T13:08:56.644Z,10.30
2023-05-07T13:11:29.130Z,10.05
2023-05-07T13:14:00.373Z,12.63
2023-05-07T13:16:30.904Z,10.13
2023-05-07T13:18:59.368Z,10.95
2023-05-07T13:21:34.077Z,10.98
2023-05-07T13:24:06.092Z,11.50
2023-05-07T13:26:35.988Z,9.68
2023-05-07T13:29:05.480Z,10.20
2023-05-07T13:31:37.436Z,7.95
2023-05-07T13:34:06.511Z,9.60
2023-05-07T13:36:42.102Z,11.25
2023-05-07T13:39:15.738Z,7.82
2023-05-07T13:41:46.329Z,8.63
2023-05-07T13:44:15.796Z,6.63
2023-05-07T13:46:46.262Z,7.72
2023-05-07T13:49:15.866Z,8.98
2023-05-07T13:51:44.206Z,8.73
2023-05-07T13:54:14.013Z,8.10
2023-05-07T13:56:42.705Z,7.07
2023-05-07T13:59:15.571Z,6.22
2023-05-07T14:01:45.248Z,7.95
2023-05-07T14:04:14.046Z,7.57
2023-05-07T14:06:43.413Z,8.82
2023-05-07T14:09:16.679Z,8.55
2023-05-07T14:11:52.172Z,9.02
2023-05-07T14:14:22.863Z,7.88
2023-05-07T14:16:53.653Z,9.30
2023-05-07T14:19:24.665Z,6.95
2023-05-07T14:21:56.539Z,10.27
2023-05-07T14:24:38.032Z,12.50
2023-05-07T14:27:11.167Z,9.13
2023-05-07T14:29:40.147Z,9.70
2023-05-07T14:32:10.576Z,10.13
2023-05-07T14:34:39.820Z,11.23
2023-05-07T14:37:09.487Z,11.27
2023-05-07T14:39:45.053Z,11.20
2023-05-07T14:42:22.123Z,9.52
2023-05-07T14:44:51.376Z,14.95
2023-05-07T14:47:21.836Z,13.23
2023-05-07T14:49:51.476Z,11.43
2023-05-07T14:52:23.244Z,15.02
2023-05-07T14:54:55.902Z,12.63
2023-05-07T14:57:26.755Z,14.00
2023-05-07T14:59:55.979Z,12.82
2023-05-07T15:02:25.143Z,14.10
2023-05-07T15:04:55.946Z,16.02
2023-05-07T15:07:25.663Z,16.45
2023-05-07T15:09:58.088Z,18.48
2023-05-07T15:12:28.903Z,15.82
2023-05-07T15:14:59.709Z,11.70
2023-05-07T15:17:31.501Z,13.10
2023-05-07T15:20:02.926Z,13.85
2023-05-07T15:22:32.398Z,13.82
2023-05-07T15:25:06.830Z,10.68
2023-05-07T15:27:35.811Z,12.13
2023-05-07T15:30:06.754Z,13.02
2023-05-07T15:32:38.602Z,10.02
2023-05-07T15:35:14.071Z,5.05
2023-05-07T15:37:45.393Z,6.90
2023-05-07T15:40:18.174Z,6.22
2023-05-07T15:42:52.700Z,7.00
2023-05-07T15:45:26.138Z,10.25
2023-05-07T15:47:56.496Z,5.63
2023-05-07T15:50:26.589Z,5.30
2023-05-07T15:52:55.557Z,5.90
2023-05-07T15:55:26.460Z,8.27
2023-05-07T15:57:58.379Z,7.45
2023-05-07T16:00:32.024Z,7.35
2023-05-07T16:03:01.778Z,6.07
2023-05-07T16:05:31.978Z,9.15
2023-05-07T16:08:01.145Z,5.07
2023-05-07T16:10:32.758Z,9.45
2023-05-07T16:13:05.307Z,9.55
2023-05-07T16:15:34.270Z,7.32
2023-05-07T16:18:03.479Z,8.32
2023-05-07T16:20:32.925Z,11.27
2023-05-07T16:23:03.023Z,20.98
2023-05-07T16:25:33.590Z,11.38
2023-05-07T16:28:11.073Z,10.05
2023-05-07T16:30:39.740Z,14.93
2023-05-07T16:33:08.682Z,14.38
2023-05-07T16:35:44.283Z,17.83
2023-05-07T16:41:08.695Z,16.90
2023-05-07T16:43:41.229Z,14.93
2023-05-07T16:46:13.204Z,11.85
2023-05-07T16:48:43.596Z,14.30
2023-05-07T16:51:16.082Z,17.77
2023-05-07T16:53:46.630Z,10.32
2023-05-07T16:56:19.198Z,8.75
2023-05-07T16:58:48.625Z,14.35
2023-05-07T17:01:19.109Z,11.85
2023-05-07T17:03:53.701Z,10.77
2023-05-07T17:06:22.957Z,11.48
2023-05-07T17:08:57.100Z,11.40
2023-05-07T17:11:44.580Z,10.18
2023-05-07T17:14:20.219Z,7.10
2023-05-07T17:16:49.856Z,7.07
2023-05-07T17:19:20.968Z,6.30
2023-05-07T17:21:50.427Z,4.40
2023-05-07T17:24:22.064Z,8.30
2023-05-07T17:26:53.333Z,6.25
2023-05-07T17:29:23.828Z,7.20
2023-05-07T17:31:58.477Z,7.55
2023-05-07T17:34:36.166Z,6.38
2023-05-07T17:37:07.110Z,4.35
2023-05-07T17:39:37.382Z,4.57
2023-05-07T17:42:08.822Z,6.38
2023-05-07T17:44:40.981Z,6.95
2023-05-07T17:47:13.580Z,3.22
2023-05-07T17:49:43.196Z,5.15
2023-05-07T17:52:14.713Z,4.18
2023-05-07T17:54:44.022Z,5.05
2023-05-07T17:57:15.214Z,5.50
2023-05-07T17:59:43.848Z,6.25
2023-05-07T18:02:48.455Z,6.05
2023-05-07T18:05:37.155Z,8.05
2023-05-07T18:08:19.129Z,9.23
2023-05-07T18:11:03.832Z,6.97
2023-05-07T18:13:50.134Z,9.63
2023-05-07T18:16:30.344Z,9.13
2023-05-07T18:19:17.670Z,5.57
2023-05-07T18:22:15.056Z,7.60
2023-05-07T18:24:54.244Z,6.20
2023-05-07T18:27:30.598Z,8.50
2023-05-07T18:30:18.925Z,5.05
2023-05-07T18:32:54.750Z,5.57
2023-05-07T18:35:31.640Z,8.40
2023-05-07T18:38:15.387Z,6.85
2023-05-07T18:40:55.517Z,6.90
2023-05-07T18:43:43.247Z,8.80
2023-05-07T18:46:21.665Z,11.07
2023-05-07T18:49:05.623Z,7.53
2023-05-07T18:51:57.916Z,9.43
2023-05-07T18:54:46.011Z,9.85
2023-05-07T18:57:18.133Z,8.50
2023-05-07T18:59:49.487Z,8.35
2023-05-07T19:02:27.827Z,7.22
2023-05-07T19:05:01.518Z,11.25
2023-05-07T19:07:35.097Z,5.60
2023-05-07T19:10:06.561Z,8.63
2023-05-07T19:12:52.248Z,7.20
2023-05-07T19:15:25.350Z,9.20
2023-05-07T19:21:06.833Z,7.03
2023-05-07T19:23:42.137Z,14.68
2023-05-07T19:28:45.888Z,10.52
2023-05-07T19:31:21.834Z,7.75
2023-05-07T19:33:53.045Z,11.45
2023-05-07T19:36:26.879Z,9.05
2023-05-07T19:38:57.444Z,9.88
2023-05-07T19:41:26.279Z,7.07
2023-05-07T19:43:55.932Z,14.48
2023-05-07T19:46:25.158Z,10.63
2023-05-07T19:48:58.824Z,8.10
2023-05-07T19:51:33.962Z,8.40
2023-05-07T19:54:03.924Z,16.30
2023-05-07T19:56:33.369Z,10.65
2023-05-07T19:59:04.520Z,17.10
2023-05-07T20:01:36.517Z,10.77
2023-05-07T20:04:12.009Z,11.32
2023-05-07T20:06:46.226Z,10.48
2023-05-07T20:09:18.274Z,9.98
2023-05-07T20:11:47.692Z,10.52
2023-05-07T20:14:18.052Z,16.48
2023-05-07T20:16:48.226Z,11.23
2023-05-07T20:19:23.763Z,8.55
2023-05-07T20:21:54.204Z,13.38
2023-05-07T20:24:24.863Z,12.65
2023-05-07T20:27:00.259Z,11.18
2023-05-07T20:29:51.086Z,13.20
2023-05-07T20:32:23.841Z,11.10
2023-05-07T20:35:00.044Z,16.25
2023-05-07T20:37:29.784Z,13.70
2023-05-07T20:40:01.770Z,14.20
2023-05-07T20:42:36.617Z,14.15
2023-05-07T20:45:07.094Z,15.10
2023-05-07T20:47:38.863Z,12.15
2023-05-07T20:50:13.919Z,12.63
2023-05-07T20:55:14.747Z,14.68
2023-05-07T20:57:44.281Z,15.18
2023-05-07T21:00:18.330Z,15.68
2023-05-07T21:02:50.830Z,15.68
2023-05-07T21:05:21.855Z,14.15
2023-05-07T21:07:51.007Z,15.70
2023-05-07T21:10:19.805Z,17.98
2023-05-07T21:12:52.756Z,16.33
2023-05-07T21:15:23.531Z,17.77
2023-05-07T21:17:58.904Z,17.92
2023-05-07T21:23:05.068Z,21.75
2023-05-07T21:25:36.481Z,16.77
2023-05-07T21:28:08.666Z,16.27
2023-05-07T21:30:39.320Z,16.08
2023-05-07T21:33:11.961Z,22.08
2023-05-07T21:35:43.742Z,20.70
2023-05-07T21:38:15.906Z,15.90
2023-05-07T21:40:48.294Z,16.80
2023-05-07T21:43:19.922Z,19.75
2023-05-07T21:45:53.500Z,18.13
2023-05-07T21:48:24.264Z,17.52
2023-05-07T21:51:05.869Z,19.88
2023-05-07T21:53:36.849Z,23.55
2023-05-07T21:56:10.246Z,19.95
2023-05-07T21:58:42.854Z,21.33
2023-05-07T22:01:15.881Z,20.75
2023-05-07T22:03:47.086Z,19.83
2023-05-07T22:06:21.954Z,19.23
2023-05-07T22:09:01.033Z,22.05
2023-05-07T22:11:31.104Z,18.30
2023-05-07T22:14:01.286Z,17.75
2023-05-07T22:16:35.558Z,17.80
2023-05-07T22:19:08.584Z,19.57
2023-05-07T22:21:49.107Z,18.55
2023-05-07T22:24:31.927Z,17.42
2023-05-07T22:27:01.162Z,17.50
2023-05-07T22:29:31.209Z,18.83
2023-05-07T22:32:02.478Z,16.90
2023-05-07T22:34:41.270Z,16.48
2023-05-07T22:37:13.493Z,18.55
2023-05-07T22:39:44.527Z,18.33
2023-05-07T22:42:13.412Z,19.73
2023-05-07T22:44:44.407Z,19.35
2023-05-07T22:47:16.738Z,16.42
2023-05-07T22:49:46.975Z,15.95
2023-05-07T22:52:18.932Z,17.60
2023-05-07T22:54:54.155Z,16.70
2023-05-07T22:57:23.903Z,16.85
2023-05-07T22:59:56.765Z,18.40
2023-05-07T23:02:38.706Z,16.67
2023-05-07T23:05:12.478Z,16.65
2023-05-07T23:07:46.875Z,17.23
2023-05-07T23:10:17.192Z,18.25
2023-05-07T23:12:50.536Z,16.10
2023-05-07T23:15:22.127Z,17.02
2023-05-07T23:17:54.228Z,18.75
2023-05-07T23:20:26.515Z,16.35
2023-05-07T23:23:00.197Z,18.10
2023-05-07T23:25:35.211Z,18.00
2023-05-07T23:28:51.264Z,19.92
2023-05-07T23:31:24.633Z,17.85
2023-05-07T23:33:57.687Z,22.80
2023-05-07T23:36:29.244Z,19.17
2023-05-07T23:39:00.738Z,17.08
2023-05-07T23:41:31.620Z,19.80
2023-05-07T23:44:01.026Z,22.98
2023-05-07T23:46:32.400Z,20.50
2023-05-07T23:49:02.787Z,22.45
2023-05-07T23:51:34.474Z,19.67
2023-05-07T23:54:06.001Z,21.52
2023-05-07T23:56:38.391Z,23.60
2023-05-07T23:59:09.404Z,19.95
